Time;durP1;ratioP1;P1;durP2;ratioP2;P2;SDS_P1;SDS_P2;PMS_P1;PMS_P2;Temp;Humidity;BMP_temperature;BMP_pressure;BME280_temperature;BME280_humidity;BME280_pressure;Samples;Min_cycle;Max_cycle;Signal;HPM_P1;HPM_P2
2022/12/01 00:02:28;;;;;;;40.90;27.23;;;;;;;4.92;100.00;102517.03;5285338;28;20025;-73
2022/12/01 00:04:59;;;;;;;43.78;29.45;;;;;;;4.85;100.00;102512.47;5284952;28;20115;-73
2022/12/01 00:07:31;;;;;;;37.20;26.37;;;;;;;4.85;100.00;102514.19;5284922;28;20120;-72
2022/12/01 00:12:58;;;;;;;40.13;27.30;;;;;;;4.86;100.00;102514.25;5285174;28;20037;-72
2022/12/01 00:15:35;;;;;;;43.10;27.50;;;;;;;4.92;100.00;102513.59;5285439;28;20024;-72
2022/12/01 00:18:06;;;;;;;42.83;27.75;;;;;;;4.94;100.00;102517.09;5285169;28;20024;-73
2022/12/01 00:20:39;;;;;;;39.67;26.87;;;;;;;4.93;100.00;102510.19;5284976;28;20055;-72
2022/12/01 00:23:10;;;;;;;37.85;27.08;;;;;;;5.00;100.00;102507.00;5284467;28;20039;-73
2022/12/01 00:25:41;;;;;;;39.97;27.43;;;;;;;5.02;100.00;102501.88;5267501;28;20127;-72
2022/12/01 00:28:13;;;;;;;39.70;27.30;;;;;;;5.04;100.00;102508.91;5267233;28;20028;-73
2022/12/01 00:30:44;;;;;;;40.63;26.97;;;;;;;4.98;100.00;102506.06;5284794;28;20139;-72
2022/12/01 00:33:15;;;;;;;40.00;27.37;;;;;;;4.94;100.00;102506.75;5284930;28;20062;-73
2022/12/01 00:35:47;;;;;;;39.40;26.90;;;;;;;4.98;100.00;102505.19;5284631;28;20059;-72
2022/12/01 00:38:18;;;;;;;40.57;26.30;;;;;;;4.92;100.00;102508.41;5284322;28;20111;-72
2022/12/01 00:40:49;;;;;;;39.30;26.93;;;;;;;4.93;100.00;102499.84;5266694;28;20035;-73
2022/12/01 00:43:21;;;;;;;42.67;28.90;;;;;;;4.86;100.00;102510.75;5283179;28;20053;-72
2022/12/01 00:45:52;;;;;;;42.87;28.60;;;;;;;4.93;100.00;102510.19;5284180;28;20039;-73
2022/12/01 00:48:24;;;;;;;48.33;29.80;;;;;;;4.81;100.00;102502.81;5284177;28;20032;-72
2022/12/01 00:50:55;;;;;;;44.43;28.87;;;;;;;4.83;100.00;102508.97;5284106;28;20074;-72
2022/12/01 00:53:26;;;;;;;59.00;32.77;;;;;;;4.77;100.00;102502.69;5284443;28;20032;-72
2022/12/01 00:55:58;;;;;;;51.50;31.53;;;;;;;4.80;100.00;102506.25;5265788;28;20032;-72
2022/12/01 00:58:29;;;;;;;50.93;32.50;;;;;;;4.79;100.00;102503.59;5266979;28;20041;-72
2022/12/01 01:01:01;;;;;;;48.63;30.40;;;;;;;4.82;100.00;102502.00;5284072;28;20443;-72
2022/12/01 01:03:33;;;;;;;52.10;30.13;;;;;;;4.87;100.00;102509.94;5266118;28;20021;-72
2022/12/01 01:06:06;;;;;;;54.07;30.77;;;;;;;4.88;100.00;102502.25;5283885;28;20044;-73
2022/12/01 01:08:38;;;;;;;55.88;31.55;;;;;;;4.85;100.00;102509.88;5284120;28;20067;-73
2022/12/01 01:11:11;;;;;;;53.50;31.35;;;;;;;4.93;100.00;102510.19;5283867;28;20036;-72
2022/12/01 01:13:42;;;;;;;55.92;33.10;;;;;;;4.92;100.00;102518.75;5265881;28;20024;-72
2022/12/01 01:16:17;;;;;;;60.23;33.67;;;;;;;4.89;100.00;102518.63;5284075;28;20059;-71
2022/12/01 01:18:48;;;;;;;57.35;32.47;;;;;;;4.87;100.00;102518.56;5283723;28;20105;-72
2022/12/01 01:21:21;;;;;;;60.60;33.53;;;;;;;4.82;100.00;102517.53;5283724;28;20112;-72
2022/12/01 01:23:54;;;;;;;54.67;34.20;;;;;;;4.89;100.00;102521.22;5283781;28;20029;-71
2022/12/01 01:26:30;;;;;;;55.60;32.95;;;;;;;4.88;100.00;102522.94;5266184;28;20107;-71
2022/12/01 01:29:05;;;;;;;60.80;33.92;;;;;;;4.83;100.00;102523.56;5284016;28;20036;-71
2022/12/01 01:31:36;;;;;;;56.45;34.38;;;;;;;4.87;100.00;102533.22;5284036;28;20087;-72
2022/12/01 01:34:08;;;;;;;58.40;32.33;;;;;;;4.88;100.00;102532.41;5284640;28;20036;-73
2022/12/01 01:36:39;;;;;;;61.90;34.30;;;;;;;4.83;100.00;102528.72;5285305;28;20031;-73
2022/12/01 01:39:10;;;;;;;56.63;33.63;;;;;;;4.83;100.00;102534.81;5284115;28;20055;-72
2022/12/01 01:41:42;;;;;;;53.97;31.47;;;;;;;4.81;100.00;102538.13;5261390;28;20107;-72
2022/12/01 01:44:58;;;;;;;55.93;31.20;;;;;;;4.86;100.00;102544.34;5263531;28;20391;-72
2022/12/01 01:47:35;;;;;;;52.47;30.30;;;;;;;4.83;100.00;102542.56;5259132;28;20041;-72
2022/12/01 01:50:13;;;;;;;59.65;33.03;;;;;;;4.86;100.00;102546.94;5262358;28;20040;-72
2022/12/01 01:52:48;;;;;;;50.22;29.25;;;;;;;4.83;100.00;102541.66;5262929;28;20029;-73
2022/12/01 01:55:19;;;;;;;53.78;31.38;;;;;;;4.80;100.00;102541.53;5262226;28;20029;-72
2022/12/01 01:57:51;;;;;;;56.60;32.10;;;;;;;4.84;100.00;102533.09;5262466;28;20451;-72
2022/12/01 02:00:23;;;;;;;48.23;29.27;;;;;;;4.90;100.00;102538.50;5262237;28;20068;-72
2022/12/01 02:02:56;;;;;;;55.70;31.17;;;;;;;4.83;100.00;102537.38;5263268;28;20044;-72
2022/12/01 02:05:31;;;;;;;50.63;29.33;;;;;;;4.95;100.00;102546.44;5262897;28;20028;-73
2022/12/01 02:08:05;;;;;;;50.03;29.10;;;;;;;4.88;100.00;102548.78;5262924;28;20043;-73
2022/12/01 02:11:06;;;;;;;48.70;30.48;;;;;;;4.91;100.00;102546.31;5262902;28;20033;-72
2022/12/01 02:13:44;;;;;;;53.33;30.17;;;;;;;4.90;100.00;102535.91;5262647;28;20029;-72
2022/12/01 02:16:29;;;;;;;56.17;30.75;;;;;;;4.92;100.00;102532.53;5261939;28;20349;-73
2022/12/01 02:19:04;;;;;;;47.60;29.60;;;;;;;4.98;100.00;102543.97;5262190;28;20025;-71
2022/12/01 02:22:09;;;;;;;50.00;30.15;;;;;;;4.91;100.00;102546.31;5262528;28;20036;-72
2022/12/01 02:24:52;;;;;;;52.92;30.95;;;;;;;4.90;100.00;102541.09;5262259;28;20029;-73
2022/12/01 02:27:45;;;;;;;57.22;30.00;;;;;;;4.91;100.00;102538.56;5261864;28;20491;-72
2022/12/01 02:30:33;;;;;;;47.90;28.70;;;;;;;4.91;100.00;102545.41;5262133;28;20032;-72
2022/12/01 02:33:37;;;;;;;51.45;31.45;;;;;;;4.91;100.00;102542.81;5261779;28;20036;-73
2022/12/01 02:36:11;;;;;;;50.97;28.85;;;;;;;4.83;100.00;102539.06;5250207;28;20087;-72
2022/12/01 02:39:05;;;;;;;53.22;31.17;;;;;;;4.83;100.00;102539.97;5262319;28;20025;-72
2022/12/01 02:41:38;;;;;;;;;;;;;;;4.90;100.00;102541.94;5266251;28;20109;-71
2022/12/01 02:44:32;;;;;;;54.65;31.40;;;;;;;4.78;100.00;102538.00;5282622;28;20314;-72
2022/12/01 02:47:13;;;;;;;55.95;33.22;;;;;;;4.73;100.00;102537.81;5267615;28;20032;-74
2022/12/01 02:49:50;;;;;;;60.90;34.83;;;;;;;4.73;100.00;102548.16;5286548;28;20028;-73
2022/12/01 02:52:25;;;;;;;62.08;35.33;;;;;;;4.76;100.00;102540.53;5286485;28;20070;-72
2022/12/01 02:54:57;;;;;;;61.60;34.90;;;;;;;4.72;100.00;102542.13;5286257;28;20383;-72
2022/12/01 02:57:29;;;;;;;66.30;35.30;;;;;;;4.74;100.00;102539.59;5286412;28;20024;-72
2022/12/01 03:00:01;;;;;;;61.15;35.67;;;;;;;4.71;100.00;102539.47;5286657;28;20033;-72
2022/12/01 03:02:49;;;;;;;58.88;34.50;;;;;;;4.73;100.00;102541.31;5286653;28;20364;-73
2022/12/01 03:06:08;;;;;;;66.15;34.47;;;;;;;4.75;100.00;102546.53;5286688;28;20111;-72
2022/12/01 03:09:06;;;;;;;61.22;34.15;;;;;;;4.78;100.00;102548.34;5181645;28;20046;-72
2022/12/01 03:11:48;;;;;;;60.25;33.88;;;;;;;4.73;100.00;102543.91;5286344;28;20028;-72
2022/12/01 03:14:41;;;;;;;58.85;33.00;;;;;;;4.81;100.00;102539.00;5286146;28;20028;-72
2022/12/01 03:17:24;;;;;;;54.05;31.92;;;;;;;4.80;100.00;102546.69;5286385;28;20031;-73
2022/12/01 03:20:07;;;;;;;61.28;33.85;;;;;;;4.78;100.00;102540.59;5268716;28;20033;-73
2022/12/01 03:22:50;;;;;;;;;;;;;;;4.87;100.00;102552.16;5286684;28;20111;-73
2022/12/01 03:25:25;;;;;;;55.08;31.63;;;;;;;4.78;100.00;102543.19;5285907;28;19909;-72
2022/12/01 03:27:59;;;;;;;54.50;31.13;;;;;;;4.82;100.00;102537.31;5285596;28;20032;-72
2022/12/01 03:30:34;;;;;;;53.80;30.60;;;;;;;4.82;100.00;102539.91;5285378;28;20036;-73
2022/12/01 03:33:13;;;;;;;54.50;31.02;;;;;;;4.82;100.00;102548.53;5285670;28;20039;-73
2022/12/01 03:35:53;;;;;;;54.10;33.58;;;;;;;4.80;100.00;102542.44;5286441;28;20058;-74
2022/12/01 03:38:26;;;;;;;55.85;32.70;;;;;;;4.82;100.00;102540.78;5285794;28;20028;-73
2022/12/01 03:41:15;;;;;;;54.78;32.90;;;;;;;4.92;100.00;102540.31;5285542;28;20383;-72
2022/12/01 03:44:02;;;;;;;52.33;28.98;;;;;;;4.85;100.00;102538.31;5285307;28;20037;-73
2022/12/01 03:46:49;;;;;;;54.50;31.60;;;;;;;4.86;100.00;102539.19;5268381;28;20122;-74
2022/12/01 03:49:24;;;;;;;54.30;32.65;;;;;;;4.81;100.00;102539.00;5285562;28;20032;-72
2022/12/01 03:52:07;;;;;;;57.78;33.67;;;;;;;4.74;100.00;102540.47;5285483;28;20037;-73
2022/12/01 03:55:00;;;;;;;53.17;31.85;;;;;;;4.81;100.00;102535.53;5285074;28;20074;-72
2022/12/01 03:58:00;;;;;;;56.85;32.13;;;;;;;4.77;100.00;102541.44;5285257;28;20543;-73
2022/12/01 04:00:32;;;;;;;53.53;32.92;;;;;;;4.76;100.00;102543.13;5275730;28;20043;-73
2022/12/01 04:03:05;;;;;;;54.28;32.22;;;;;;;4.82;100.00;102551.13;5285078;28;20111;-74
2022/12/01 04:05:36;;;;;;;55.65;32.47;;;;;;;4.80;100.00;102554.44;5285039;28;20478;-73
2022/12/01 04:08:08;;;;;;;45.37;30.57;;;;;;;4.76;100.00;102550.88;5266812;28;20048;-73
2022/12/01 04:10:39;;;;;;;54.47;31.10;;;;;;;4.81;100.00;102548.47;5284791;28;20064;-73
2022/12/01 04:13:20;;;;;;;50.87;32.87;;;;;;;4.78;100.00;102550.94;5284641;28;20032;-73
2022/12/01 04:15:53;;;;;;;50.47;32.17;;;;;;;4.72;100.00;102547.28;5284793;28;20146;-72
2022/12/01 04:18:24;;;;;;;50.53;32.45;;;;;;;4.78;100.00;102548.34;5284691;28;20024;-73
2022/12/01 04:20:56;;;;;;;53.60;32.63;;;;;;;4.84;100.00;102551.16;5284784;28;20033;-73
2022/12/01 04:26:17;;;;;;;46.92;30.45;;;;;;;4.86;100.00;102560.75;5284881;28;20037;-72
2022/12/01 04:28:48;;;;;;;45.50;30.33;;;;;;;4.89;100.00;102550.53;5284742;28;20033;-73
2022/12/01 04:31:20;;;;;;;50.67;33.03;;;;;;;4.81;100.00;102544.16;5284485;28;20029;-73
2022/12/01 04:33:53;;;;;;;47.13;30.30;;;;;;;4.92;100.00;102547.19;5284174;28;20052;-73
2022/12/01 04:36:28;;;;;;;47.22;30.13;;;;;;;4.89;100.00;102547.06;5284361;28;20103;-72
2022/12/01 04:39:01;;;;;;;48.22;31.08;;;;;;;4.84;100.00;102551.16;5284285;28;20056;-73
2022/12/01 04:41:32;;;;;;;46.53;28.40;;;;;;;4.80;100.00;102546.69;5283981;28;20057;-73
2022/12/01 04:44:04;;;;;;;49.67;32.37;;;;;;;4.77;100.00;102544.88;5283965;28;20117;-74
2022/12/01 04:46:36;;;;;;;48.93;30.67;;;;;;;4.75;100.00;102543.97;5266277;28;20036;-73
2022/12/01 04:49:07;;;;;;;53.60;31.65;;;;;;;4.75;100.00;102544.81;5283859;28;20043;-72
2022/12/01 04:51:39;;;;;;;48.93;31.33;;;;;;;4.80;100.00;102547.59;5266082;28;20462;-72
2022/12/01 04:54:10;;;;;;;51.47;31.33;;;;;;;4.72;100.00;102544.69;5284132;28;20039;-72
2022/12/01 04:56:42;;;;;;;51.50;30.70;;;;;;;4.73;100.00;102549.06;5284443;28;20448;-71
2022/12/01 04:59:13;;;;;;;50.50;32.30;;;;;;;4.71;100.00;102548.09;5284585;28;20036;-72
2022/12/01 05:01:46;;;;;;;49.67;32.67;;;;;;;4.69;100.00;102542.00;5284019;28;20047;-70
2022/12/01 05:04:18;;;;;;;50.67;31.02;;;;;;;4.74;100.00;102548.22;5283888;28;20064;-72
2022/12/01 05:06:49;;;;;;;48.80;32.23;;;;;;;4.72;100.00;102542.13;5283519;28;20109;-72
2022/12/01 05:09:20;;;;;;;52.13;32.33;;;;;;;4.74;100.00;102550.81;5282843;28;20028;-72
2022/12/01 05:11:52;;;;;;;54.63;32.27;;;;;;;4.71;100.00;102542.94;5285059;28;20036;-72
2022/12/01 05:14:23;;;;;;;51.97;31.33;;;;;;;4.69;100.00;102544.56;5284611;28;20070;-73
2022/12/01 05:16:56;;;;;;;49.33;31.47;;;;;;;4.69;100.00;102541.13;5284314;28;20143;-72
2022/12/01 05:22:17;;;;;;;53.95;30.70;;;;;;;4.72;100.00;102543.84;5283686;28;20475;-73
2022/12/01 05:24:49;;;;;;;49.70;31.83;;;;;;;4.69;100.00;102551.47;5283543;28;20024;-73
2022/12/01 05:27:20;;;;;;;52.30;31.30;;;;;;;4.72;100.00;102547.28;5283334;28;20043;-72
2022/12/01 05:29:51;;;;;;;51.00;31.17;;;;;;;4.70;100.00;102543.78;5283745;28;20037;-72
2022/12/01 05:32:23;;;;;;;50.43;32.00;;;;;;;4.74;100.00;102555.97;5283455;28;20093;-72
2022/12/01 05:34:54;;;;;;;54.20;31.10;;;;;;;4.67;100.00;102548.81;5283509;28;20337;-72
2022/12/01 05:37:31;;;;;;;50.87;32.27;;;;;;;4.65;100.00;102552.13;5265929;28;20430;-72
2022/12/01 05:40:02;;;;;;;48.67;30.75;;;;;;;4.70;100.00;102554.09;5284103;28;20174;-71
2022/12/01 05:42:33;;;;;;;56.30;33.57;;;;;;;4.64;100.00;102556.44;5283375;28;20128;-72
2022/12/01 05:45:06;;;;;;;47.40;31.13;;;;;;;4.67;100.00;102553.06;5282996;28;20158;-73
2022/12/01 05:47:37;;;;;;;46.25;30.20;;;;;;;4.71;100.00;102550.69;5282822;28;20540;-73
2022/12/01 05:50:09;;;;;;;51.57;31.50;;;;;;;4.71;100.00;102555.84;5283511;28;20029;-73
2022/12/01 05:52:40;;;;;;;46.20;29.97;;;;;;;4.68;100.00;102550.56;5283752;28;20039;-74
2022/12/01 05:55:12;;;;;;;52.50;31.33;;;;;;;4.67;100.00;102553.97;5265138;28;20044;-72
2022/12/01 05:57:43;;;;;;;52.20;31.97;;;;;;;4.67;100.00;102560.81;5282997;28;20032;-73
2022/12/01 06:00:15;;;;;;;49.73;31.97;;;;;;;4.64;100.00;102555.56;5283100;28;20025;-73
2022/12/01 06:02:47;;;;;;;48.78;30.02;;;;;;;4.65;100.00;102555.59;5283127;28;20047;-72
2022/12/01 06:05:18;;;;;;;46.37;29.20;;;;;;;4.63;100.00;102556.38;5283585;28;20029;-73
2022/12/01 06:07:49;;;;;;;45.43;28.97;;;;;;;4.69;100.00;102565.25;5283443;28;20035;-73
2022/12/01 06:10:21;;;;;;;45.93;30.60;;;;;;;4.69;100.00;102559.22;5265360;28;20029;-73
2022/12/01 06:12:52;;;;;;;53.80;31.23;;;;;;;4.67;100.00;102564.31;5283836;28;20056;-74
2022/12/01 06:15:24;;;;;;;51.07;30.83;;;;;;;4.67;100.00;102564.31;5284114;28;20032;-73
2022/12/01 06:17:58;;;;;;;48.07;31.80;;;;;;;4.69;100.00;102560.06;5285415;28;20484;-71
2022/12/01 06:20:29;;;;;;;46.75;31.00;;;;;;;4.63;100.00;102562.41;5286903;28;20017;-73
2022/12/01 06:23:00;;;;;;;46.20;29.90;;;;;;;4.64;100.00;102559.03;5288888;28;20501;-71
2022/12/01 06:25:32;;;;;;;48.33;28.57;;;;;;;4.63;100.00;102557.25;5289338;28;20033;-72
2022/12/01 06:28:03;;;;;;;50.47;32.23;;;;;;;4.62;100.00;102567.50;5287793;28;20450;-73
2022/12/01 06:30:35;;;;;;;55.20;33.27;;;;;;;4.59;100.00;102560.53;5287746;28;20047;-72
2022/12/01 06:33:06;;;;;;;51.13;31.80;;;;;;;4.60;100.00;102554.53;5286509;28;20039;-73
2022/12/01 06:35:37;;;;;;;49.20;31.47;;;;;;;4.55;100.00;102554.34;5269094;28;20066;-72
2022/12/01 06:38:09;;;;;;;52.67;31.53;;;;;;;4.59;100.00;102560.53;5268290;28;20103;-73
2022/12/01 06:40:42;;;;;;;49.00;30.80;;;;;;;4.55;100.00;102566.38;5286456;28;20033;-75
2022/12/01 06:43:13;;;;;;;51.15;30.58;;;;;;;4.57;100.00;102568.22;5284193;28;20045;-73
2022/12/01 06:45:44;;;;;;;53.30;31.70;;;;;;;4.58;100.00;102571.69;5268401;28;20114;-72
2022/12/01 06:48:16;;;;;;;55.90;33.20;;;;;;;4.57;100.00;102564.75;5286264;28;20028;-73
2022/12/01 06:50:48;;;;;;;54.27;31.50;;;;;;;4.57;100.00;102572.50;5268219;28;20033;-73
2022/12/01 06:53:19;;;;;;;53.72;31.73;;;;;;;4.61;100.00;102569.22;5268331;28;20170;-73
2022/12/01 06:55:51;;;;;;;50.43;30.93;;;;;;;4.59;100.00;102581.19;5286092;28;20040;-73
2022/12/01 06:58:22;;;;;;;51.93;30.43;;;;;;;4.61;100.00;102581.28;5286300;28;20364;-74
2022/12/01 07:00:53;;;;;;;47.77;29.00;;;;;;;4.59;100.00;102577.72;5286004;28;20047;-73
2022/12/01 07:03:25;;;;;;;49.43;29.37;;;;;;;4.59;100.00;102588.03;5286502;28;20032;-73
2022/12/01 07:05:58;;;;;;;48.37;30.37;;;;;;;4.59;100.00;102586.38;5286966;28;20457;-72
2022/12/01 07:08:31;;;;;;;52.05;30.27;;;;;;;4.62;100.00;102594.25;5285646;28;20052;-73
2022/12/01 07:11:07;;;;;;;;;;;;;;;4.67;100.00;102592.72;5286468;28;20544;-73
2022/12/01 07:13:39;;;;;;;51.72;29.15;;;;;;;4.64;100.00;102597.75;5286417;28;19909;-72
2022/12/01 07:16:11;;;;;;;49.88;29.10;;;;;;;4.67;100.00;102597.00;5287808;28;20418;-73
2022/12/01 07:18:43;;;;;;;51.53;29.42;;;;;;;4.70;100.00;102602.28;5285991;28;20025;-73
2022/12/01 07:21:15;;;;;;;48.45;28.27;;;;;;;4.70;100.00;102602.28;5285806;28;20064;-73
2022/12/01 07:23:47;;;;;;;46.30;28.67;;;;;;;4.70;100.00;102612.63;5285975;28;20065;-73
2022/12/01 07:26:18;;;;;;;46.13;28.87;;;;;;;4.73;100.00;102599.81;5286186;28;20032;-73
2022/12/01 07:28:51;;;;;;;50.63;30.23;;;;;;;4.74;100.00;102610.22;5286499;28;20064;-74
2022/12/01 07:31:22;;;;;;;47.65;28.30;;;;;;;4.68;100.00;102607.38;5285969;28;20045;-73
2022/12/01 07:33:54;;;;;;;52.17;29.97;;;;;;;4.70;100.00;102604.88;5285808;28;20037;-73
2022/12/01 07:36:25;;;;;;;46.73;30.03;;;;;;;4.73;100.00;102613.66;5285710;28;20043;-71
2022/12/01 07:38:57;;;;;;;54.13;29.80;;;;;;;4.74;100.00;102607.63;5285243;28;20028;-72
2022/12/01 07:41:28;;;;;;;48.93;29.77;;;;;;;4.80;100.00;102613.88;5267881;28;20028;-72
2022/12/01 07:44:00;;;;;;;47.80;28.83;;;;;;;4.80;100.00;102611.28;5284592;28;20059;-71
2022/12/01 07:46:31;;;;;;;56.10;30.50;;;;;;;4.82;100.00;102609.66;5285124;28;20040;-72
2022/12/01 07:49:06;;;;;;;46.43;29.00;;;;;;;4.76;100.00;102612.88;5285241;28;20632;-76
2022/12/01 07:51:38;;;;;;;52.00;28.75;;;;;;;4.80;100.00;102612.19;5285618;28;20028;-73
2022/12/01 07:54:10;;;;;;;50.90;29.33;;;;;;;4.81;100.00;102616.50;5285376;28;20039;-73
2022/12/01 07:56:41;;;;;;;50.63;28.73;;;;;;;4.85;100.00;102622.72;5268186;28;20111;-72
2022/12/01 07:59:13;;;;;;;50.77;29.50;;;;;;;4.85;100.00;102625.31;5284911;28;20391;-73
2022/12/01 08:01:45;;;;;;;51.20;30.03;;;;;;;4.90;100.00;102623.78;5285237;28;20029;-73
2022/12/01 08:04:16;;;;;;;48.90;30.13;;;;;;;4.90;100.00;102621.19;5285079;28;20117;-73
2022/12/01 08:06:47;;;;;;;45.20;29.03;;;;;;;4.95;100.00;102634.31;5285287;28;20116;-71
2022/12/01 08:09:19;;;;;;;46.50;28.63;;;;;;;4.98;100.00;102639.59;5285000;28;20035;-73
2022/12/01 08:11:50;;;;;;;46.03;29.03;;;;;;;5.04;100.00;102634.66;5285230;28;20036;-73
2022/12/01 08:14:21;;;;;;;55.23;31.90;;;;;;;5.03;100.00;102633.78;5284879;28;20112;-73
2022/12/01 08:16:53;;;;;;;45.43;30.73;;;;;;;5.06;100.00;102639.06;5284547;28;20043;-73
2022/12/01 08:19:26;;;;;;;46.57;28.83;;;;;;;5.07;100.00;102632.19;5284391;28;20052;-73
2022/12/01 08:21:57;;;;;;;46.95;30.27;;;;;;;5.13;100.00;102639.31;5284922;28;20387;-73
2022/12/01 08:24:29;;;;;;;51.30;30.63;;;;;;;5.10;100.00;102638.38;5284628;28;20036;-72
2022/12/01 08:27:00;;;;;;;53.23;29.77;;;;;;;5.11;100.00;102640.13;5285171;28;20059;-73
2022/12/01 08:29:31;;;;;;;53.70;31.17;;;;;;;5.16;100.00;102637.72;5266792;28;20058;-72
2022/12/01 08:32:04;;;;;;;46.77;29.70;;;;;;;5.15;100.00;102642.84;5284395;28;20064;-74
2022/12/01 08:34:37;;;;;;;43.05;27.77;;;;;;;5.18;100.00;102645.53;5284477;28;20037;-73
2022/12/01 08:37:09;;;;;;;43.13;28.85;;;;;;;5.20;100.00;102651.66;5285562;28;20125;-70
2022/12/01 08:39:40;;;;;;;45.10;27.97;;;;;;;5.26;100.00;102645.03;5284610;28;20064;-73
2022/12/01 08:42:12;;;;;;;38.67;27.17;;;;;;;5.27;100.00;102648.50;5284240;28;20049;-73
2022/12/01 08:44:43;;;;;;;41.80;28.93;;;;;;;5.30;100.00;102657.25;5284635;28;20360;-72
2022/12/01 08:47:14;;;;;;;41.97;28.23;;;;;;;5.30;100.00;102648.63;5284265;28;20055;-73
2022/12/01 08:49:46;;;;;;;48.30;30.07;;;;;;;5.31;100.00;102650.34;5284178;28;20119;-73
2022/12/01 08:52:17;;;;;;;49.90;29.73;;;;;;;5.34;100.00;102654.78;5284178;28;20032;-73
2022/12/01 08:54:48;;;;;;;46.80;29.40;;;;;;;5.41;100.00;102655.09;5266154;28;20025;-73
2022/12/01 08:57:20;;;;;;;52.70;28.60;;;;;;;5.42;100.00;102653.38;5284074;28;20562;-73
2022/12/01 08:59:51;;;;;;;44.17;28.53;;;;;;;5.38;100.00;102652.38;5284489;28;20029;-72
2022/12/01 09:02:23;;;;;;;43.30;28.47;;;;;;;5.45;100.00;102654.38;5284614;28;20040;-71
2022/12/01 09:04:54;;;;;;;39.10;26.40;;;;;;;5.42;100.00;102655.97;5284262;28;20467;-74
2022/12/01 09:07:26;;;;;;;45.27;28.60;;;;;;;5.39;100.00;102651.53;5283826;28;20032;-73
2022/12/01 09:09:57;;;;;;;44.53;28.37;;;;;;;5.46;100.00;102653.56;5283968;28;20424;-73
2022/12/01 09:12:29;;;;;;;41.50;28.67;;;;;;;5.53;100.00;102653.78;5285020;28;20035;-73
2022/12/01 09:15:00;;;;;;;46.33;29.13;;;;;;;5.52;100.00;102654.59;5266659;28;20025;-72
2022/12/01 09:17:31;;;;;;;47.00;28.27;;;;;;;5.56;100.00;102653.91;5284086;28;20540;-72
2022/12/01 09:20:03;;;;;;;50.00;28.90;;;;;;;5.61;100.00;102655.84;5265814;28;20490;-78
2022/12/01 09:22:35;;;;;;;44.30;27.63;;;;;;;5.70;100.00;102651.81;5283897;28;20043;-74
2022/12/01 09:25:13;;;;;;;43.37;28.83;;;;;;;5.68;100.00;102662.13;5266276;28;20503;-74
2022/12/01 09:27:44;;;;;;;43.00;28.73;;;;;;;5.73;100.00;102658.03;5284011;28;20051;-72
2022/12/01 09:30:16;;;;;;;43.13;29.67;;;;;;;5.79;100.00;102662.53;5284151;28;20041;-73
2022/12/01 09:32:47;;;;;;;41.57;28.53;;;;;;;5.84;100.00;102660.97;5266103;28;20371;-73
2022/12/01 09:35:19;;;;;;;46.73;28.47;;;;;;;5.92;100.00;102664.72;5283888;28;20036;-72
2022/12/01 09:37:50;;;;;;;41.70;28.27;;;;;;;5.92;99.92;102664.72;5283189;28;20107;-73
2022/12/01 09:40:29;;;;;;;42.20;27.87;;;;;;;5.99;99.66;102669.34;5283543;28;20037;-74
2022/12/01 09:43:04;;;;;;;40.10;27.90;;;;;;;6.05;100.00;102666.09;5283341;28;20091;-72
2022/12/01 09:45:43;;;;;;;48.35;28.45;;;;;;;6.09;99.83;102673.16;5283497;28;20031;-73
2022/12/01 09:48:27;;;;;;;45.55;29.58;;;;;;;6.30;99.46;102674.75;5283399;28;20065;-73
2022/12/01 09:50:59;;;;;;;51.63;29.90;;;;;;;6.22;98.15;102673.59;5283715;28;20538;-72
2022/12/01 09:53:31;;;;;;;41.97;26.57;;;;;;;6.31;98.07;102673.91;5283390;28;20115;-72
2022/12/01 09:56:03;;;;;;;44.23;29.23;;;;;;;6.27;97.37;102670.34;5286200;28;20379;-73
2022/12/01 09:58:35;;;;;;;45.53;29.90;;;;;;;6.31;97.79;102663.53;5287719;28;20028;-73
2022/12/01 10:01:16;;;;;;;37.17;26.60;;;;;;;6.18;96.64;102663.13;5269516;28;20032;-73
2022/12/01 10:03:54;;;;;;;46.25;29.35;;;;;;;6.31;96.69;102660.97;5287857;28;20474;-71
2022/12/01 10:06:43;;;;;;;46.20;29.50;;;;;;;6.43;96.52;102653.63;5287392;28;20040;-71
2022/12/01 10:09:23;;;;;;;50.00;31.58;;;;;;;6.45;96.31;102662.31;5287944;28;20060;-74
2022/12/01 10:12:03;;;;;;;43.25;27.52;;;;;;;6.47;95.46;102654.59;5287434;28;20103;-73
2022/12/01 10:14:35;;;;;;;44.90;28.52;;;;;;;6.50;95.98;102662.47;5287354;28;20464;-74
2022/12/01 10:17:29;;;;;;;43.47;29.27;;;;;;;6.63;95.66;102656.00;5287460;28;20094;-74
2022/12/01 10:20:09;;;;;;;42.70;28.17;;;;;;;6.71;95.00;102646.78;5287121;28;20021;-72
2022/12/01 10:22:44;;;;;;;43.33;29.83;;;;;;;6.42;92.74;102649.25;5287615;28;20048;-73
2022/12/01 10:25:23;;;;;;;42.83;29.20;;;;;;;6.44;94.08;102646.72;5287043;28;20032;-73
2022/12/01 10:28:21;;;;;;;42.17;29.85;;;;;;;6.62;94.19;102651.63;5287341;28;20123;-73
2022/12/01 10:31:00;;;;;;;41.35;28.65;;;;;;;6.64;94.35;102650.00;5288279;28;20035;-72
2022/12/01 10:33:41;;;;;;;44.47;30.02;;;;;;;6.73;93.35;102645.13;5286665;28;20025;-73
2022/12/01 10:36:12;;;;;;;44.67;29.52;;;;;;;6.90;93.28;102641.34;5286908;28;20498;-73
2022/12/01 10:38:43;;;;;;;40.07;28.70;;;;;;;6.92;92.75;102633.63;5268880;28;20032;-73
2022/12/01 10:41:19;;;;;;;40.23;27.20;;;;;;;6.91;90.61;102630.16;5286757;28;20501;-73
2022/12/01 10:43:56;;;;;;;42.47;30.52;;;;;;;6.91;91.35;102629.28;5284746;28;20052;-72
2022/12/01 10:46:38;;;;;;;44.55;29.10;;;;;;;6.83;89.83;102633.34;5287366;28;20024;-72
2022/12/01 10:49:13;;;;;;;39.40;27.58;;;;;;;6.95;90.70;102625.94;5286741;28;20035;-73
2022/12/01 10:51:56;;;;;;;42.10;28.10;;;;;;;7.11;90.08;102624.72;5286819;28;20383;-73
2022/12/01 10:54:35;;;;;;;45.03;28.23;;;;;;;7.20;90.42;102621.53;5286697;28;20032;-72
2022/12/01 10:57:16;;;;;;;45.80;29.92;;;;;;;7.18;88.66;102625.78;5286700;28;20383;-72
2022/12/01 10:59:54;;;;;;;45.58;29.35;;;;;;;7.34;89.62;102625.44;5287232;28;20103;-73
2022/12/01 11:02:28;;;;;;;42.78;28.73;;;;;;;7.32;88.49;102621.03;5286750;28;20024;-72
2022/12/01 11:05:21;;;;;;;44.78;30.70;;;;;;;7.48;88.72;102621.50;5287201;28;20032;-73
2022/12/01 11:07:53;;;;;;;39.20;26.70;;;;;;;7.41;87.47;102622.19;5286274;28;20107;-72
2022/12/01 11:10:30;;;;;;;41.97;29.47;;;;;;;7.34;87.11;102619.34;5287962;28;20126;-72
2022/12/01 11:13:13;;;;;;;41.60;27.58;;;;;;;7.19;86.98;102618.06;5289471;28;20281;-72
2022/12/01 11:15:54;;;;;;;44.38;29.27;;;;;;;7.21;88.32;102621.59;5288538;28;20467;-72
2022/12/01 11:18:37;;;;;;;45.78;29.98;;;;;;;7.19;88.89;102617.19;5289182;28;20024;-72
2022/12/01 11:21:15;;;;;;;57.05;30.33;;;;;;;7.30;89.04;102606.28;5288455;28;20032;-72
2022/12/01 11:23:49;;;;;;;50.13;30.88;;;;;;;7.19;88.98;102615.47;5288022;28;20047;-72
2022/12/01 11:26:25;;;;;;;63.72;30.95;;;;;;;7.17;88.55;102605.88;5287945;28;20086;-73
2022/12/01 11:29:23;;;;;;;51.72;28.60;;;;;;;7.23;89.38;102603.44;5287862;28;20111;-73
2022/12/01 11:31:56;;;;;;;40.35;28.05;;;;;;;7.27;89.83;102606.19;5273032;28;20033;-72
2022/12/01 11:34:33;;;;;;;38.92;28.95;;;;;;;7.26;88.66;102600.94;5268902;28;20029;-73
2022/12/01 11:37:15;;;;;;;42.80;27.50;;;;;;;7.18;89.20;102599.84;5287823;28;20055;-73
2022/12/01 11:39:48;;;;;;;41.00;28.27;;;;;;;7.21;89.50;102595.66;5286938;28;20495;-72
2022/12/01 11:42:26;;;;;;;39.85;27.70;;;;;;;7.16;89.16;102602.41;5286972;28;20056;-73
2022/12/01 11:45:06;;;;;;;47.13;30.33;;;;;;;7.17;89.44;102598.09;5287000;28;20389;-72
2022/12/01 11:48:01;;;;;;;44.03;29.77;;;;;;;7.15;88.92;102590.28;5285415;28;20470;-73
2022/12/01 11:50:35;;;;;;;42.20;29.25;;;;;;;7.03;88.71;102592.50;5285527;28;20021;-72
2022/12/01 11:53:27;;;;;;;43.05;27.92;;;;;;;7.12;89.87;102591.06;5285181;28;20077;-74
2022/12/01 11:56:22;;;;;;;45.42;29.42;;;;;;;7.09;90.05;102590.09;5285561;28;20521;-73
2022/12/01 11:58:59;;;;;;;44.80;29.42;;;;;;;7.07;91.29;102583.97;5284996;28;20067;-73